Rankings de siempre
Mejores tiempos personales válidos de equipo a través de todos los eventos y temporadas. Cada equipo aparece una vez por división.
Busca por nombre y abre la página donde está clasificado este récord de división.
137,321 equipos clasificados
| Pos. | Pos. AG | Equipo | Nacionalidad | Categoría de edad | TiempoMejor tiempo | Diferencia |
|---|---|---|---|---|---|---|
| 132101 | #2993 | Robbert Zondervan & Yanto RidwanNED · M 50-54 · AG #2993 | NED | M 50-54 | 1:46:07 | +58:27 |
| 132102 | #18804 | Kevin Moes & Dennis De BruinNED · M 40-44 · AG #18804 | NED | M 40-44 | 1:46:07 | +58:27 |
| 132103 | #18805 | Dennis De Bruin & Kevin MoesNED · M 40-44 · AG #18805 | NED | M 40-44 | 1:46:07 | +58:27 |
| 132104 | #15514 | Joey Mahadewsing & Jeremiah MahadewsingNED · M 35-39 · AG #15514 | NED | M 35-39 | 1:46:08 | +58:28 |
| 132105 | #15515 | Nicholas Bottom & Matthew VoyseGBR · M 35-39 · AG #15515 | GBR | M 35-39 | 1:46:08 | +58:28 |
| 132106 | #15516 | Tonatiuh Vertiz & Jose GarciaMEX · M 35-39 · AG #15516 | MEX | M 35-39 | 1:46:08 | +58:28 |
| 132107 | #47535 | James Mcgovern & Jack McgovernIRL · M 30-34 · AG #47535 | IRL | M 30-34 | 1:46:08 | +58:28 |
| 132108 | #16927 | Surakeat Wai-on & Apiwit YongchuyotTHA · M 25-29 · AG #16927 | THA | M 25-29 | 1:46:08 | +58:28 |
| 132109 | #16928 | Rayan Dotivala & Rohan ManojSIN · M 25-29 · AG #16928 | SIN | M 25-29 | 1:46:08 | +58:28 |
| 132110 | #9758 | Isaac Liew & Ming Wei Stancey ChooSIN · M 16-24 · AG #9758 | SIN | M 16-24 | 1:46:08 | +58:28 |
| 132111 | #47536 | Bilal Ur Rehman & Nigel Goh Jun YiSIN · M 30-34 · AG #47536 | SIN | M 30-34 | 1:46:08 | +58:28 |
| 132112 | #47537 | Girish K & Abhishek GopinathIND · M 30-34 · AG #47537 | IND | M 30-34 | 1:46:08 | +58:28 |
| 132113 | #2994 | Chris Lucas & Andy AllanGBR · M 50-54 · AG #2994 | GBR | M 50-54 | 1:46:09 | +58:29 |
| 132114 | #15517 | Filipe Camilo & Tiago CamiloPOR · M 35-39 · AG #15517 | POR | M 35-39 | 1:46:09 | +58:29 |
| 132115 | #47538 | Joseph Danner-Hicks & Joshua Danner-HicksUSA · M 30-34 · AG #47538 | USA | M 30-34 | 1:46:09 | +58:29 |
| 132116 | #47539 | 슬우 이 & 태헌 이KOR · M 30-34 · AG #47539 | KOR | M 30-34 | 1:46:09 | +58:29 |
| 132117 | #18806 | Łukasz Soliwoda & Łukasz KozłowskiPOL · M 40-44 · AG #18806 | POL | M 40-44 | 1:46:09 | +58:29 |
| 132118 | #15518 | Andrew Luo & Jonathan ChooSIN · M 35-39 · AG #15518 | SIN | M 35-39 | 1:46:09 | +58:29 |
| 132119 | #15519 | Zhi Wei Hau & Ben NgSIN · M 35-39 · AG #15519 | SIN | M 35-39 | 1:46:09 | +58:29 |
| 132120 | #16929 | Kedar Bhat & Vijayendra BhatIND · M 25-29 · AG #16929 | IND | M 25-29 | 1:46:09 | +58:29 |
| 132121 | #18807 | Cameron Beckford & Chris MarlandGBR · M 40-44 · AG #18807 | GBR | M 40-44 | 1:46:10 | +58:30 |
| 132122 | #4136 | Allan Wilder Vianna Vallejos & Alfaro Ronald Vallejos AlcocerM 45-49 · AG #4136 | -- | M 45-49 | 1:46:10 | +58:30 |
| 132123 | #9759 | RAGHAV AGARWAL & SUJAL SAGTANIIND · M 16-24 · AG #9759 | IND | M 16-24 | 1:46:10 | +58:30 |
| 132124 | #4137 | Andy Riise & Scott StrattonUSA · M 45-49 · AG #4137 | USA | M 45-49 | 1:46:10 | +58:30 |
| 132125 | #4138 | Lorenzo Levorato & Stefano BardinITA · M 45-49 · AG #4138 | ITA | M 45-49 | 1:46:11 | +58:31 |
Página 5,285 de 5,493